CheckWX is a tool to help pilots better visualize weather data.  It is not intended as a substitute for an official pre-flight weather briefing.

14:54:15 UTC

KBGR TAF
Bangor International Airport
Bangor, Maine, USA
KBGR 291728Z 2918/3018 19009G16KT P6SM SCT025 BKN040 FM300200 19009KT P6SM VCSH BKN022 WS020/23040KT FM300500 19007KT 5SM -SHRA BR OVC008 WS020/23040KT FM300800 19006KT 2SM -SHRA BR OVC004 WS020/24035KT FM301300 20010KT 6SM -SHRA OVC012 FM301600 22011KT P6SM VCSH BKN030

May-29@
18:00 UTC

May-29 @ 18:00 UTC

May-30@
02:00 UTC

May-30 @ 02:00 UTC

TAF KBGR 291728Z 2918/3018 19009G16KT P6SM SCT025 BKN040

Expired

Wind
  • 190° at 9 KTS
  • {Gusting to 16 KTS
Cloud Levels
  • Scattered at 2,500' AGL
  • Broken at 4,000' AGL

May-30@
02:00 UTC

May-30 @ 02:00 UTC

May-30@
05:00 UTC

May-30 @ 05:00 UTC

FM300200 19009KT P6SM VCSH BKN022 WS020/23040KT

Expired

Wind
  • 190° at 9 KTS
Conditions
Area Showers
Cloud Levels
  • Broken at 2,200' AGL

May-30@
05:00 UTC

May-30 @ 05:00 UTC

May-30@
08:00 UTC

May-30 @ 08:00 UTC

FM300500 19007KT 5SM -SHRA BR OVC008 WS020/23040KT

Expired

Wind
  • 190° at 7 KTS
Conditions
Light Showers, Rain, Mist
Cloud Levels
  • Overcast at 800' AGL

May-30@
08:00 UTC

May-30 @ 08:00 UTC

May-30@
13:00 UTC

May-30 @ 13:00 UTC

FM300800 19006KT 2SM -SHRA BR OVC004 WS020/24035KT

Expired

Wind
  • 190° at 6 KTS
Conditions
Light Showers, Rain, Mist
Cloud Levels
  • Overcast at 400' AGL

May-30@
13:00 UTC

May-30 @ 13:00 UTC

May-30@
16:00 UTC

May-30 @ 16:00 UTC

FM301300 20010KT 6SM -SHRA OVC012

From

From Standard forecast or significant change

Wind
  • 200° at 10 KTS
Conditions
Light Showers, Rain
Cloud Levels
  • Overcast at 1,200' AGL

May-30@
16:00 UTC

May-30 @ 16:00 UTC

May-30@
18:00 UTC

May-30 @ 18:00 UTC

FM301600 22011KT P6SM VCSH BKN030

From

From Standard forecast or significant change

Wind
  • 220° at 11 KTS
Conditions
Area Showers
Cloud Levels
  • Broken at 3,000' AGL